Time;durP1;ratioP1;P1;durP2;ratioP2;P2;SDS_P1;SDS_P2;PMS_P1;PMS_P2;Temp;Humidity;BMP_temperature;BMP_pressure;BME280_temperature;BME280_humidity;BME280_pressure;Samples;Min_cycle;Max_cycle;Signal;HPM_P1;HPM_P2
2023/12/14 00:01:20;;;;;;;2.60;1.90;;;;;;;1.07;90.22;98541.82;107251;1257;60029;-40
2023/12/14 00:03:48;;;;;;;3.10;1.90;;;;;;;1.08;90.10;98542.76;107227;1257;73820;-40
2023/12/14 00:06:15;;;;;;;1.80;1.60;;;;;;;1.04;90.19;98542.36;107122;1257;66297;-40
2023/12/14 00:08:43;;;;;;;2.30;1.70;;;;;;;1.03;90.25;98541.58;107071;1257;72690;-40
2023/12/14 00:11:11;;;;;;;3.10;2.00;;;;;;;1.04;90.09;98538.89;107057;1257;60472;-40
2023/12/14 00:13:39;;;;;;;2.30;1.90;;;;;;;1.02;90.33;98537.48;107090;1257;60366;-40
2023/12/14 00:16:08;;;;;;;2.70;1.90;;;;;;;1.02;90.40;98536.73;107046;1257;73884;-40
2023/12/14 00:18:35;;;;;;;2.80;1.70;;;;;;;1.07;90.17;98537.33;107302;1257;67817;-41
2023/12/14 00:21:04;;;;;;;2.40;1.80;;;;;;;1.04;90.40;98528.20;107069;1263;72766;-41
2023/12/14 00:23:31;;;;;;;1.40;1.30;;;;;;;1.00;90.42;98530.23;107057;1257;60937;-41
2023/12/14 00:25:59;;;;;;;4.70;1.70;;;;;;;1.06;90.19;98523.46;107083;1257;60282;-41
2023/12/14 00:28:26;;;;;;;1.90;1.70;;;;;;;1.03;90.12;98524.21;107032;1257;73871;-40
2023/12/14 00:30:58;;;;;;;2.20;1.60;;;;;;;0.99;90.20;98519.98;107113;1257;67580;-40
2023/12/14 00:33:26;;;;;;;2.40;1.60;;;;;;;1.00;90.02;98518.73;107106;1261;72671;-40
2023/12/14 00:35:53;;;;;;;2.20;1.50;;;;;;;0.99;90.17;98516.10;107249;1257;60530;-40
2023/12/14 00:38:21;;;;;;;1.70;1.40;;;;;;;0.95;90.47;98506.02;107103;1257;60386;-40
2023/12/14 00:40:48;;;;;;;1.50;1.30;;;;;;;0.98;90.36;98503.16;107210;1257;71801;-40
2023/12/14 00:43:16;;;;;;;1.60;1.30;;;;;;;0.96;90.34;98491.27;107108;1257;66367;-40
2023/12/14 00:45:43;;;;;;;2.10;1.60;;;;;;;0.93;90.55;98490.58;107098;1259;72048;-40
2023/12/14 00:48:11;;;;;;;1.80;1.40;;;;;;;0.94;90.49;98498.23;107069;1260;60449;-40
2023/12/14 00:50:39;;;;;;;3.30;1.20;;;;;;;0.97;90.60;98498.23;106361;1257;1002925;-40
2023/12/14 00:53:06;;;;;;;1.50;1.10;;;;;;;0.92;90.79;98490.08;106313;1257;1003779;-41
2023/12/14 00:55:34;;;;;;;1.50;1.20;;;;;;;0.92;90.80;98482.98;107087;1262;66296;-40
2023/12/14 00:58:01;;;;;;;3.80;1.70;;;;;;;0.98;90.56;98481.80;107241;1257;72716;-40
2023/12/14 01:00:30;;;;;;;1.90;1.40;;;;;;;0.96;90.61;98475.95;107268;1257;60648;-40
2023/12/14 01:02:58;;;;;;;1.00;1.00;;;;;;;0.95;90.61;98471.67;107268;1262;60196;-40
2023/12/14 01:05:25;;;;;;;1.30;1.10;;;;;;;0.97;90.41;98471.80;107285;1256;73838;-40
2023/12/14 01:07:53;;;;;;;1.70;1.30;;;;;;;0.96;90.56;98471.64;107138;1258;67619;-40
2023/12/14 01:10:21;;;;;;;1.00;1.00;;;;;;;0.90;90.63;98463.49;107199;1258;72346;-40
2023/12/14 01:12:50;;;;;;;1.30;1.20;;;;;;;0.96;90.46;98462.04;107198;1257;60612;-40
2023/12/14 01:15:17;;;;;;;1.20;1.10;;;;;;;0.94;90.39;98464.27;107064;1257;60483;-41
2023/12/14 01:17:45;;;;;;;1.10;1.00;;;;;;;0.91;90.57;98467.27;107072;1262;73865;-40
2023/12/14 01:20:12;;;;;;;1.50;1.30;;;;;;;0.93;90.58;98455.67;107222;1257;67583;-40
2023/12/14 01:22:40;;;;;;;1.70;1.20;;;;;;;0.94;90.56;98452.14;107207;1257;72797;-40
2023/12/14 01:25:08;;;;;;;1.50;1.10;;;;;;;0.88;90.69;98443.81;107085;1258;60896;-41
2023/12/14 01:27:35;;;;;;;1.30;1.20;;;;;;;0.90;90.64;98440.55;106361;1257;1003370;-40
2023/12/14 01:30:03;;;;;;;1.80;1.30;;;;;;;0.92;90.71;98432.54;107244;1257;73871;-40
2023/12/14 01:32:31;;;;;;;1.10;1.00;;;;;;;0.90;90.67;98424.13;107111;1257;68021;-40
2023/12/14 01:34:59;;;;;;;0.80;0.80;;;;;;;0.90;90.62;98418.63;107231;1257;72658;-40
2023/12/14 01:37:26;;;;;;;1.50;1.20;;;;;;;0.95;90.57;98415.35;107224;1257;60247;-39
2023/12/14 01:39:54;;;;;;;1.50;1.10;;;;;;;0.93;90.61;98420.53;107113;1257;59271;-39
2023/12/14 01:42:22;;;;;;;1.20;0.90;;;;;;;0.90;90.68;98414.98;107222;1257;74335;-39
2023/12/14 01:44:49;;;;;;;0.90;0.90;;;;;;;0.94;90.57;98418.65;107243;1257;67737;-39
2023/12/14 01:47:17;;;;;;;1.80;1.10;;;;;;;0.92;90.68;98414.83;107087;1259;71492;-39
2023/12/14 01:49:45;;;;;;;2.60;1.20;;;;;;;0.89;90.72;98411.66;107196;1257;60369;-39
2023/12/14 01:52:13;;;;;;;1.20;0.90;;;;;;;0.92;90.45;98407.67;107310;1257;60492;-39
2023/12/14 01:54:40;;;;;;;0.90;0.80;;;;;;;0.91;90.55;98402.99;107233;1257;72897;-40
2023/12/14 01:57:08;;;;;;;1.10;0.90;;;;;;;0.86;90.73;98397.02;107241;1257;67556;-40
2023/12/14 01:59:35;;;;;;;1.20;0.90;;;;;;;0.91;90.61;98394.46;107224;1257;71798;-40
2023/12/14 02:02:05;;;;;;;1.10;1.00;;;;;;;0.91;90.58;98386.61;107210;1257;60443;-40
2023/12/14 02:04:32;;;;;;;;;;;;;;;0.87;90.62;98378.11;107271;1257;60358;-40
2023/12/14 02:07:00;;;;;;;2.20;1.20;;;;;;;0.87;90.55;98369.14;107073;1257;73926;-40
2023/12/14 02:09:28;;;;;;;2.30;1.20;;;;;;;0.92;90.46;98361.24;107096;1257;66969;-40
2023/12/14 02:11:55;;;;;;;1.20;1.10;;;;;;;0.89;90.48;98363.11;107207;1262;72770;-40
2023/12/14 02:14:23;;;;;;;1.60;1.20;;;;;;;0.86;90.43;98363.47;107193;1257;60872;-40
2023/12/14 02:16:51;;;;;;;2.40;1.50;;;;;;;0.90;90.28;98356.23;107331;1257;60515;-39
2023/12/14 02:19:18;;;;;;;1.80;1.40;;;;;;;0.90;90.37;98353.46;107063;1257;73890;-40
2023/12/14 02:21:46;;;;;;;1.70;1.30;;;;;;;0.85;90.38;98346.88;107253;1262;67605;-40
2023/12/14 02:24:13;;;;;;;2.00;1.20;;;;;;;0.86;90.45;98349.02;107050;1260;72783;-40
2023/12/14 02:26:41;;;;;;;1.50;1.40;;;;;;;0.88;90.22;98346.74;107224;1256;60522;-40
2023/12/14 02:29:08;;;;;;;2.00;1.40;;;;;;;0.86;90.27;98342.18;107242;1257;60264;-40
2023/12/14 02:31:36;;;;;;;2.00;1.50;;;;;;;0.80;90.50;98341.39;107182;1257;73838;-40
2023/12/14 02:34:03;;;;;;;1.80;1.50;;;;;;;0.83;90.21;98339.17;107130;1257;67534;-40
2023/12/14 02:36:31;;;;;;;1.90;1.40;;;;;;;0.81;90.36;98329.86;107233;1257;72675;-40
2023/12/14 02:38:58;;;;;;;1.70;1.40;;;;;;;0.80;90.26;98336.24;107197;1257;60928;-39
2023/12/14 02:41:26;;;;;;;1.60;1.40;;;;;;;0.82;90.39;98337.90;107261;1257;59711;-40
2023/12/14 02:43:53;;;;;;;2.60;1.90;;;;;;;0.81;90.46;98333.61;107064;1257;72536;-41
2023/12/14 02:46:21;;;;;;;1.80;1.50;;;;;;;0.81;90.63;98335.11;107084;1258;68100;-41
2023/12/14 02:48:49;;;;;;;1.70;1.50;;;;;;;0.84;90.37;98332.71;107216;1257;71384;-41
2023/12/14 02:51:16;;;;;;;2.30;1.80;;;;;;;0.83;90.39;98327.71;107046;1263;60575;-41
2023/12/14 02:53:44;;;;;;;2.50;1.70;;;;;;;0.80;90.59;98328.08;107229;1263;60300;-41
2023/12/14 02:56:12;;;;;;;3.50;1.70;;;;;;;0.83;90.58;98322.95;107074;1257;71918;-41
2023/12/14 02:58:40;;;;;;;1.80;1.60;;;;;;;0.87;90.49;98320.90;107084;1257;67876;-41
2023/12/14 03:01:07;;;;;;;1.70;1.50;;;;;;;0.84;90.42;98324.27;107222;1257;72680;-41
2023/12/14 03:03:38;;;;;;;2.40;1.70;;;;;;;0.81;90.72;98324.84;107066;1257;60693;-41
2023/12/14 03:06:06;;;;;;;1.90;1.50;;;;;;;0.89;90.63;98326.35;107245;1257;60484;-41
2023/12/14 03:08:33;;;;;;;2.80;1.70;;;;;;;0.89;90.73;98320.48;107067;1261;73838;-41
2023/12/14 03:11:01;;;;;;;1.60;1.40;;;;;;;0.92;90.55;98320.30;107042;1257;66306;-41
2023/12/14 03:13:29;;;;;;;2.20;1.80;;;;;;;0.97;90.37;98322.35;107209;1258;72780;-41
2023/12/14 03:15:56;;;;;;;2.80;1.70;;;;;;;0.97;90.32;98311.60;106838;1258;301005;-41
2023/12/14 03:21:15;;;;;;;2.90;1.50;;;;;;;0.99;90.42;98314.94;104231;1291;600216;-40
2023/12/14 03:23:42;;;;;;;2.10;1.60;;;;;;;0.98;90.27;98315.19;106618;1265;59266;-40
2023/12/14 03:26:09;;;;;;;1.40;1.10;;;;;;;0.97;90.26;98308.46;106678;1267;59181;-40
2023/12/14 03:28:37;;;;;;;2.40;1.40;;;;;;;1.00;90.14;98310.10;106628;1267;73225;-40
2023/12/14 03:31:05;;;;;;;1.80;1.50;;;;;;;0.96;90.15;98304.77;106658;1266;67530;-40
2023/12/14 03:33:33;;;;;;;2.20;1.30;;;;;;;0.94;90.14;98306.66;106606;1266;71080;-40
2023/12/14 03:36:02;;;;;;;1.20;1.00;;;;;;;0.93;90.13;98295.60;106651;1264;130714;-40
2023/12/14 03:38:29;;;;;;;4.20;2.10;;;;;;;0.95;90.10;98293.08;106764;1264;59295;-40
2023/12/14 03:40:57;;;;;;;1.70;1.30;;;;;;;0.88;90.45;98291.20;106776;1264;72270;-40
2023/12/14 03:43:24;;;;;;;2.00;1.50;;;;;;;0.92;90.50;98291.71;106870;1263;67585;-40
2023/12/14 03:45:52;;;;;;;2.20;1.70;;;;;;;0.96;90.30;98291.29;106817;1268;72689;-40
2023/12/14 03:48:19;;;;;;;2.00;1.60;;;;;;;0.93;90.58;98286.55;106853;1264;59597;-40
2023/12/14 03:50:47;;;;;;;2.50;1.50;;;;;;;0.93;90.42;98282.70;106875;1263;60052;-40
2023/12/14 03:53:14;;;;;;;1.70;1.40;;;;;;;0.98;90.45;98283.23;106811;1262;73093;-40
2023/12/14 03:55:42;;;;;;;1.60;1.50;;;;;;;0.95;90.40;98283.21;106794;1264;66463;-40
2023/12/14 03:58:10;;;;;;;1.40;1.30;;;;;;;0.93;90.68;98282.77;106830;1268;72667;-40
2023/12/14 04:00:37;;;;;;;1.40;1.30;;;;;;;0.99;90.41;98283.85;106831;1267;59723;-40
2023/12/14 04:03:05;;;;;;;1.30;1.20;;;;;;;0.99;90.43;98273.62;106837;1263;60054;-40
2023/12/14 04:05:32;;;;;;;1.60;1.30;;;;;;;0.96;90.62;98271.85;106866;1263;73082;-40
2023/12/14 04:08:00;;;;;;;1.40;1.30;;;;;;;0.98;90.43;98276.20;106842;1264;67563;-40
2023/12/14 04:10:27;;;;;;;1.70;1.30;;;;;;;1.00;90.31;98268.84;106860;1262;71956;-40
2023/12/14 04:12:55;;;;;;;1.00;0.90;;;;;;;0.95;90.51;98269.23;107232;1257;59331;-40
2023/12/14 04:15:22;;;;;;;1.70;1.20;;;;;;;0.96;90.28;98265.98;107243;1256;60102;-40
2023/12/14 04:17:50;;;;;;;1.70;1.40;;;;;;;0.99;90.25;98255.91;107240;1257;71702;-40
2023/12/14 04:20:17;;;;;;;1.50;1.40;;;;;;;0.96;90.48;98257.26;107257;1257;66846;-39
2023/12/14 04:22:45;;;;;;;1.30;1.20;;;;;;;0.95;90.62;98257.23;107239;1256;72645;-40
2023/12/14 04:25:13;;;;;;;1.60;1.40;;;;;;;1.00;90.40;98249.12;107277;1257;59730;-40
2023/12/14 04:27:40;;;;;;;1.60;1.20;;;;;;;0.98;90.50;98245.53;107281;1257;59525;-41
2023/12/14 04:30:11;;;;;;;1.60;1.30;;;;;;;0.97;90.56;98246.41;107282;1257;71743;-40
2023/12/14 04:32:39;;;;;;;1.10;1.00;;;;;;;1.02;90.40;98247.52;107282;1256;66773;-40
2023/12/14 04:35:07;;;;;;;3.00;1.30;;;;;;;1.02;90.34;98240.27;107302;1255;70457;-40
2023/12/14 04:37:35;;;;;;;1.40;1.00;;;;;;;0.98;90.47;98242.01;107285;1257;59663;-41
2023/12/14 04:40:04;;;;;;;1.20;1.10;;;;;;;1.01;90.33;98235.96;107249;1258;60016;-40
2023/12/14 04:42:32;;;;;;;1.40;1.30;;;;;;;1.03;90.28;98236.92;107283;1256;73028;-40
2023/12/14 04:45:00;;;;;;;1.90;1.20;;;;;;;0.98;90.43;98233.20;107260;1261;67729;-41
2023/12/14 04:47:28;;;;;;;1.10;0.90;;;;;;;0.97;90.67;98223.53;107277;1257;72662;-40
2023/12/14 04:49:56;;;;;;;1.10;1.00;;;;;;;1.00;90.41;98221.37;107225;1256;59638;-40
2023/12/14 04:52:23;;;;;;;1.80;1.20;;;;;;;0.97;90.48;98219.95;107227;1257;60078;-41
2023/12/14 04:54:51;;;;;;;1.00;0.90;;;;;;;0.95;90.64;98212.65;107213;1258;72163;-40
2023/12/14 04:57:19;;;;;;;1.20;1.00;;;;;;;0.99;90.58;98210.70;107257;1256;67916;-40
2023/12/14 04:59:46;;;;;;;1.30;1.20;;;;;;;0.99;90.68;98206.38;107242;1256;72686;-40
2023/12/14 05:02:13;;;;;;;1.00;0.90;;;;;;;0.95;90.88;98199.81;107213;1258;60225;-40
2023/12/14 05:04:41;;;;;;;1.60;0.90;;;;;;;0.97;90.73;98199.98;107282;1257;59483;-40
2023/12/14 05:07:09;;;;;;;1.10;1.00;;;;;;;1.00;90.54;98203.92;107241;1255;73052;-40
2023/12/14 05:09:36;;;;;;;1.00;0.90;;;;;;;0.96;90.82;98203.23;107281;1257;66709;-40
2023/12/14 05:12:04;;;;;;;1.60;1.00;;;;;;;0.98;90.78;98204.67;107213;1257;71454;-40
2023/12/14 05:14:32;;;;;;;1.20;0.90;;;;;;;1.04;90.66;98202.89;107252;1257;60911;-40
2023/12/14 05:16:59;;;;;;;1.50;1.10;;;;;;;1.01;90.65;98202.87;107191;1256;60021;-41
2023/12/14 05:19:27;;;;;;;1.30;1.00;;;;;;;0.99;90.64;98196.48;107219;1257;73078;-40
2023/12/14 05:21:54;;;;;;;1.50;1.00;;;;;;;1.01;90.69;98194.17;107304;1257;66404;-40
2023/12/14 05:24:22;;;;;;;1.30;1.10;;;;;;;1.04;90.65;98193.59;107256;1257;71441;-40
2023/12/14 05:26:50;;;;;;;1.20;0.80;;;;;;;1.00;90.56;98188.89;107259;1257;59733;-40
2023/12/14 05:29:17;;;;;;;2.40;1.10;;;;;;;0.96;90.54;98177.20;107275;1257;59491;-40
2023/12/14 05:31:45;;;;;;;2.80;0.90;;;;;;;1.05;90.49;98184.48;107260;1257;73030;-42
2023/12/14 05:34:12;;;;;;;1.40;1.00;;;;;;;1.00;90.63;98180.95;107288;1254;67914;-40
2023/12/14 05:36:40;;;;;;;1.70;1.00;;;;;;;0.99;90.63;98181.13;107242;1257;72696;-40
2023/12/14 05:39:08;;;;;;;1.40;1.00;;;;;;;1.04;90.31;98179.02;107274;1257;59545;-40
2023/12/14 05:41:44;;;;;;;1.50;1.20;;;;;;;1.03;90.55;98176.95;107272;1256;60049;-40
2023/12/14 05:44:13;;;;;;;1.90;0.90;;;;;;;1.01;90.43;98177.92;107259;1254;73575;-41
2023/12/14 05:46:40;;;;;;;1.20;1.00;;;;;;;1.05;90.24;98182.20;107300;1257;67601;-41
2023/12/14 05:49:08;;;;;;;1.30;1.10;;;;;;;1.06;90.28;98184.61;107278;1260;72734;-41
2023/12/14 05:51:37;;;;;;;1.10;0.80;;;;;;;1.04;90.43;98178.27;107240;1257;59746;-41
2023/12/14 05:54:05;;;;;;;1.70;1.20;;;;;;;1.07;90.27;98167.94;107337;1255;59484;-41
2023/12/14 05:56:32;;;;;;;1.50;1.40;;;;;;;1.11;90.14;98164.13;107245;1260;72321;-41
2023/12/14 05:59:02;;;;;;;2.00;1.20;;;;;;;1.10;90.13;98168.69;107241;1257;67678;-41
2023/12/14 06:01:30;;;;;;;1.80;1.10;;;;;;;1.09;89.93;98163.45;107230;1257;72677;-41
2023/12/14 06:03:57;;;;;;;1.40;1.10;;;;;;;1.15;89.56;98169.77;107265;1255;59637;-41
2023/12/14 06:06:25;;;;;;;1.90;1.10;;;;;;;1.15;89.35;98174.02;107319;1256;60029;-41
2023/12/14 06:08:53;;;;;;;1.40;1.20;;;;;;;1.10;89.50;98171.34;107364;1255;72043;-41
2023/12/14 06:11:20;;;;;;;1.70;1.10;;;;;;;1.11;89.48;98161.30;107275;1256;66345;-41
2023/12/14 06:13:48;;;;;;;1.70;1.30;;;;;;;1.16;89.32;98161.85;107301;1257;72673;-41
2023/12/14 06:16:16;;;;;;;1.80;1.20;;;;;;;1.13;89.23;98164.20;107275;1257;59393;-41
2023/12/14 06:18:43;;;;;;;1.90;1.10;;;;;;;1.11;89.22;98164.89;107249;1255;59501;-41
2023/12/14 06:21:12;;;;;;;1.80;1.20;;;;;;;1.16;89.10;98163.38;107323;1256;72050;-41
2023/12/14 06:23:39;;;;;;;1.40;1.10;;;;;;;1.16;89.06;98158.35;107189;1257;68563;-41
2023/12/14 06:26:07;;;;;;;1.50;1.10;;;;;;;1.11;89.08;98157.34;107253;1257;72692;-40
2023/12/14 06:28:35;;;;;;;1.50;1.10;;;;;;;1.11;89.06;98153.54;107213;1257;59657;-41
2023/12/14 06:31:03;;;;;;;1.60;1.30;;;;;;;1.15;88.78;98148.42;106492;1257;1003432;-41
2023/12/14 06:33:31;;;;;;;1.30;1.20;;;;;;;1.14;89.01;98153.55;107263;1258;73002;-41
2023/12/14 06:36:04;;;;;;;1.30;1.00;;;;;;;1.13;89.13;98152.52;107297;1256;67970;-41
2023/12/14 06:38:32;;;;;;;2.30;1.50;;;;;;;1.11;88.94;98131.73;107307;1257;74924;-41
2023/12/14 06:41:01;;;;;;;1.70;1.40;;;;;;;1.20;88.97;98154.25;107274;1257;59631;-41
2023/12/14 06:43:29;;;;;;;1.40;1.30;;;;;;;1.18;88.84;98143.77;107252;1257;60143;-41
2023/12/14 06:45:57;;;;;;;1.60;1.20;;;;;;;1.19;88.50;98141.76;107140;1257;72090;-40
2023/12/14 06:48:24;;;;;;;1.90;1.40;;;;;;;1.22;88.36;98144.08;107296;1260;66280;-41
2023/12/14 06:50:54;;;;;;;3.90;1.60;;;;;;;1.17;88.42;98143.58;107251;1257;72654;-41
2023/12/14 06:53:22;;;;;;;2.40;1.20;;;;;;;1.18;88.34;98136.30;107253;1256;59624;-41
2023/12/14 06:55:50;;;;;;;1.50;1.10;;;;;;;1.19;88.13;98133.09;107316;1257;60065;-41
2023/12/14 06:58:18;;;;;;;2.20;1.40;;;;;;;1.18;88.38;98130.30;107278;1257;71982;-40
2023/12/14 07:00:45;;;;;;;2.80;1.50;;;;;;;1.13;88.56;98132.92;107262;1257;66420;-41
2023/12/14 07:03:13;;;;;;;2.70;1.70;;;;;;;1.15;88.47;98127.21;107248;1257;72677;-41
2023/12/14 07:05:42;;;;;;;3.10;1.70;;;;;;;1.17;88.39;98124.24;107197;1257;59692;-41
2023/12/14 07:08:10;;;;;;;1.80;1.40;;;;;;;1.15;88.61;98126.67;107233;1260;60065;-41
2023/12/14 07:10:38;;;;;;;2.60;1.70;;;;;;;1.16;88.46;98123.77;106481;1256;1002974;-41
2023/12/14 07:13:05;;;;;;;3.40;2.00;;;;;;;1.22;88.38;98124.77;107232;1257;67552;-41
2023/12/14 07:15:33;;;;;;;3.60;1.90;;;;;;;1.20;88.40;98115.50;107218;1257;72689;-41
2023/12/14 07:18:00;;;;;;;2.70;1.60;;;;;;;1.20;88.38;98111.67;107265;1257;59688;-41
2023/12/14 07:20:28;;;;;;;2.80;1.60;;;;;;;1.23;88.10;98109.05;107253;1256;59924;-41
2023/12/14 07:22:55;;;;;;;2.20;1.70;;;;;;;1.21;88.11;98106.29;107253;1256;73031;-41
2023/12/14 07:25:23;;;;;;;3.90;1.60;;;;;;;1.18;88.06;98103.52;107243;1261;67552;-41
2023/12/14 07:27:50;;;;;;;2.20;1.30;;;;;;;1.23;88.14;98112.70;107228;1258;72764;-41
2023/12/14 07:30:18;;;;;;;2.70;1.80;;;;;;;1.26;87.84;98114.31;107297;1257;60549;-41
2023/12/14 07:32:46;;;;;;;2.50;1.60;;;;;;;1.23;87.94;98113.30;107280;1257;59672;-41
2023/12/14 07:35:13;;;;;;;2.90;1.80;;;;;;;1.19;88.15;98115.59;107293;1256;73810;-41
2023/12/14 07:37:41;;;;;;;2.90;1.80;;;;;;;1.24;87.73;98116.99;107262;1257;67858;-39
2023/12/14 07:40:09;;;;;;;2.30;1.70;;;;;;;1.24;88.00;98116.18;107255;1257;72677;-39
2023/12/14 07:42:36;;;;;;;2.30;1.60;;;;;;;1.19;88.04;98108.52;107306;1257;60393;-39
2023/12/14 07:45:05;;;;;;;4.40;1.80;;;;;;;1.22;88.08;98110.01;107253;1257;60485;-39
2023/12/14 07:47:33;;;;;;;2.50;1.50;;;;;;;1.27;87.68;98105.67;107336;1257;72547;-39
2023/12/14 07:50:01;;;;;;;3.00;1.80;;;;;;;1.26;88.04;98108.02;107251;1257;67552;-39
2023/12/14 07:52:29;;;;;;;2.10;1.60;;;;;;;1.26;88.13;98110.59;107269;1257;72751;-40
2023/12/14 07:54:56;;;;;;;2.50;1.70;;;;;;;1.31;88.02;98108.92;107219;1257;60928;-40
2023/12/14 07:57:23;;;;;;;3.50;1.90;;;;;;;1.35;87.54;98106.75;107230;1256;60640;-40
2023/12/14 07:59:51;;;;;;;1.70;1.40;;;;;;;1.30;87.50;98100.13;107253;1256;72860;-40
2023/12/14 08:02:18;;;;;;;2.10;1.60;;;;;;;1.26;87.61;98096.46;107254;1257;66270;-40
2023/12/14 08:04:46;;;;;;;2.10;1.70;;;;;;;1.31;87.39;98087.50;107218;1257;71196;-40
2023/12/14 08:07:13;;;;;;;5.10;1.80;;;;;;;1.29;87.61;98078.67;107224;1257;60346;-40
2023/12/14 08:09:41;;;;;;;2.80;1.90;;;;;;;1.25;87.66;98079.36;107240;1257;60383;-40
2023/12/14 08:12:08;;;;;;;1.80;1.60;;;;;;;1.21;87.93;98074.33;107219;1257;73799;-40
2023/12/14 08:14:38;;;;;;;2.60;1.70;;;;;;;1.26;87.92;98076.86;107247;1257;68044;-41
2023/12/14 08:17:06;;;;;;;2.70;1.90;;;;;;;1.24;87.68;98072.61;107205;1261;72699;-40
2023/12/14 08:19:34;;;;;;;5.30;3.70;;;;;;;1.20;88.01;98067.35;107181;1257;60457;-41
2023/12/14 08:22:01;;;;;;;7.40;6.00;;;;;;;1.25;87.87;98067.61;107123;1257;60530;-40
2023/12/14 08:24:29;;;;;;;10.10;8.10;;;;;;;1.26;87.82;98064.37;107074;1257;73726;-40
2023/12/14 08:26:56;;;;;;;8.30;6.90;;;;;;;1.25;87.85;98065.85;107127;1257;66762;-40
2023/12/14 08:29:24;;;;;;;4.90;4.20;;;;;;;1.22;87.88;98066.05;107093;1262;73039;-40
2023/12/14 08:31:51;;;;;;;2.80;2.10;;;;;;;1.25;87.89;98070.52;107161;1258;60488;-41
2023/12/14 08:34:19;;;;;;;2.70;1.90;;;;;;;1.25;87.80;98078.82;107108;1257;60473;-40
2023/12/14 08:36:47;;;;;;;2.20;1.70;;;;;;;1.23;87.95;98081.30;107152;1257;74035;-40
2023/12/14 08:39:15;;;;;;;2.10;1.80;;;;;;;1.27;87.86;98076.67;107091;1257;68206;-40
2023/12/14 08:41:44;;;;;;;2.40;1.90;;;;;;;1.30;87.56;98072.99;107023;1264;71583;-40
2023/12/14 08:44:12;;;;;;;3.20;1.90;;;;;;;1.26;87.51;98063.77;107183;1257;60325;-40
2023/12/14 08:46:44;;;;;;;2.90;1.70;;;;;;;1.18;87.52;98048.77;107103;1257;60685;-40
2023/12/14 08:49:12;;;;;;;2.60;1.70;;;;;;;1.26;87.58;98051.39;107112;1258;73851;-40
2023/12/14 08:51:40;;;;;;;2.70;2.00;;;;;;;1.24;87.70;98043.88;107169;1257;67766;-40
2023/12/14 08:54:08;;;;;;;2.50;1.60;;;;;;;1.21;87.87;98035.84;107085;1262;73046;-40
2023/12/14 08:56:35;;;;;;;3.50;1.80;;;;;;;1.21;87.86;98028.20;107118;1258;59231;-40
2023/12/14 08:59:03;;;;;;;1.90;1.50;;;;;;;1.24;87.93;98033.04;107065;1257;60336;-40
2023/12/14 09:01:31;;;;;;;2.70;1.90;;;;;;;1.22;88.10;98037.23;107113;1263;73821;-40
2023/12/14 09:04:00;;;;;;;2.90;1.60;;;;;;;1.24;87.88;98041.18;107076;1257;69878;-40
2023/12/14 09:06:27;;;;;;;2.70;1.80;;;;;;;1.33;87.81;98040.65;107081;1257;72708;-40
2023/12/14 09:08:55;;;;;;;3.20;1.80;;;;;;;1.37;87.75;98029.70;107097;1260;60525;-41
2023/12/14 09:11:22;;;;;;;3.50;1.90;;;;;;;1.35;87.70;98025.52;107112;1257;60342;-40
2023/12/14 09:13:50;;;;;;;1.90;1.70;;;;;;;1.35;87.44;98016.60;107096;1257;73088;-40
2023/12/14 09:16:18;;;;;;;3.20;1.90;;;;;;;1.40;87.29;98012.12;107119;1257;66584;-40
2023/12/14 09:18:46;;;;;;;2.30;1.70;;;;;;;1.38;87.02;98010.19;107110;1257;71198;-40
2023/12/14 09:21:14;;;;;;;3.00;1.70;;;;;;;1.32;87.23;98014.58;107197;1257;60494;-41
2023/12/14 09:23:42;;;;;;;2.10;1.60;;;;;;;1.37;87.27;98016.96;107243;1257;60495;-41
2023/12/14 09:26:10;;;;;;;2.50;1.70;;;;;;;1.42;86.91;98019.02;107229;1257;72585;-40
2023/12/14 09:28:38;;;;;;;2.60;2.20;;;;;;;1.38;87.22;98014.24;107225;1256;69914;-40
2023/12/14 09:31:06;;;;;;;2.50;1.40;;;;;;;1.34;87.34;98013.60;107064;1257;72740;-40
2023/12/14 09:33:35;;;;;;;2.40;1.60;;;;;;;1.38;87.19;98013.10;107227;1262;60476;-40
2023/12/14 09:36:04;;;;;;;1.50;1.30;;;;;;;1.41;87.18;98009.02;107346;1257;60592;-41
2023/12/14 09:38:32;;;;;;;2.00;1.20;;;;;;;1.39;87.27;98007.04;107270;1257;72585;-41
2023/12/14 09:40:59;;;;;;;2.40;1.60;;;;;;;1.39;87.37;98003.67;107251;1262;66299;-41
2023/12/14 09:43:27;;;;;;;2.00;1.40;;;;;;;1.43;87.23;98006.02;107216;1258;70666;-41
2023/12/14 09:45:55;;;;;;;2.00;1.70;;;;;;;1.45;87.30;98007.26;107317;1263;60089;-40
2023/12/14 09:48:22;;;;;;;2.80;1.40;;;;;;;1.44;87.28;98006.13;107247;1262;60533;-40
2023/12/14 09:50:50;;;;;;;3.50;1.80;;;;;;;1.45;87.31;97993.34;107244;1258;74260;-41
2023/12/14 09:53:18;;;;;;;3.10;2.00;;;;;;;1.50;86.99;97994.80;107246;1256;66711;-40
2023/12/14 09:55:46;;;;;;;3.30;1.90;;;;;;;1.52;86.92;97996.54;107231;1257;72816;-40
2023/12/14 09:58:14;;;;;;;2.90;2.00;;;;;;;1.51;87.24;97997.44;107219;1257;60404;-40
2023/12/14 10:00:42;;;;;;;3.40;1.90;;;;;;;1.54;87.16;97999.38;107060;1258;60229;-40
2023/12/14 10:03:28;;;;;;;3.90;1.90;;;;;;;1.62;86.83;97993.84;107209;1258;73250;-40
2023/12/14 10:05:57;;;;;;;3.90;2.10;;;;;;;1.65;86.49;97996.12;107213;1257;67605;-41
2023/12/14 10:08:26;;;;;;;2.70;2.10;;;;;;;1.63;86.63;97990.57;107224;1258;73013;-40
2023/12/14 10:10:55;;;;;;;2.80;2.00;;;;;;;1.61;86.78;97990.42;107210;1257;60424;-41
2023/12/14 10:13:37;;;;;;;2.20;2.00;;;;;;;1.66;86.53;97986.86;107218;1257;60457;-41
2023/12/14 10:16:05;;;;;;;2.40;1.80;;;;;;;1.69;86.26;97979.77;107230;1257;74011;-40
2023/12/14 10:18:36;;;;;;;2.60;2.10;;;;;;;1.66;86.30;97987.30;107283;1257;66804;-41
2023/12/14 10:21:07;;;;;;;2.60;2.10;;;;;;;1.65;86.56;97983.09;107278;1257;73930;-40
2023/12/14 10:23:35;;;;;;;2.30;1.80;;;;;;;1.67;86.24;97974.92;107546;1254;61082;-40
2023/12/14 10:26:04;;;;;;;3.30;2.50;;;;;;;1.68;86.04;97967.77;107508;1254;60440;-41
2023/12/14 10:28:32;;;;;;;2.70;2.10;;;;;;;1.64;86.36;97962.39;107544;1252;73890;-41
2023/12/14 10:31:00;;;;;;;3.80;1.90;;;;;;;1.60;86.38;97961.48;107485;1254;66417;-40
2023/12/14 10:33:27;;;;;;;2.10;1.90;;;;;;;1.62;86.29;97955.15;107322;1253;71516;-40
2023/12/14 10:35:55;;;;;;;2.00;1.70;;;;;;;1.70;86.45;97946.45;107490;1254;60636;-40
2023/12/14 10:38:22;;;;;;;2.60;2.00;;;;;;;1.72;86.46;97940.81;107431;1253;60526;-40
2023/12/14 10:40:51;;;;;;;2.50;2.00;;;;;;;1.69;86.38;97937.97;107486;1254;72680;-40
2023/12/14 10:43:18;;;;;;;2.70;2.20;;;;;;;1.68;86.48;97938.98;107481;1258;68081;-41
2023/12/14 10:46:07;;;;;;;2.60;2.10;;;;;;;1.77;86.16;97944.37;107469;1256;71863;-40
2023/12/14 10:48:36;;;;;;;2.40;2.00;;;;;;;1.80;86.13;97939.72;107446;1254;60492;-40
2023/12/14 10:51:05;;;;;;;5.20;2.90;;;;;;;1.79;86.33;97949.39;107490;1254;60950;-40
2023/12/14 10:53:33;;;;;;;3.90;2.10;;;;;;;1.80;86.41;97942.78;107497;1253;73470;-40
2023/12/14 10:56:02;;;;;;;2.40;1.90;;;;;;;1.84;86.01;97940.69;107427;1259;68178;-40
2023/12/14 10:59:04;;;;;;;3.00;2.40;;;;;;;1.91;85.85;97941.36;107513;1255;71031;-40
2023/12/14 11:01:32;;;;;;;3.00;2.40;;;;;;;1.92;85.76;97943.21;107478;1253;60450;-40
2023/12/14 11:04:00;;;;;;;3.10;2.40;;;;;;;1.94;86.08;97948.34;107490;1253;60661;-40
2023/12/14 11:06:30;;;;;;;3.00;2.40;;;;;;;1.99;85.99;97953.14;107500;1256;73968;-40
2023/12/14 11:09:05;;;;;;;3.10;2.30;;;;;;;2.07;85.55;97949.33;107543;1254;66639;-41
2023/12/14 11:11:58;;;;;;;2.60;2.20;;;;;;;2.11;84.99;97952.51;107554;1257;71818;-41
2023/12/14 11:14:27;;;;;;;3.40;2.50;;;;;;;2.14;85.42;97955.42;107504;1254;60434;-41
2023/12/14 11:17:15;;;;;;;5.40;3.20;;;;;;;2.17;85.23;97961.09;107576;1256;60401;-41
2023/12/14 11:19:43;;;;;;;4.70;2.90;;;;;;;2.17;85.03;97953.83;107478;1255;74231;-41
2023/12/14 11:22:23;;;;;;;4.50;3.10;;;;;;;2.20;84.41;97950.92;107536;1254;66805;-41
2023/12/14 11:24:53;;;;;;;2.90;2.60;;;;;;;2.25;84.53;97950.21;107541;1254;72794;-41
2023/12/14 11:27:30;;;;;;;5.20;3.20;;;;;;;2.24;84.29;97949.81;107584;1253;60424;-41
2023/12/14 11:29:58;;;;;;;4.60;2.70;;;;;;;2.19;84.26;97948.16;107443;1254;59694;-41
2023/12/14 11:32:26;;;;;;;5.30;2.80;;;;;;;2.16;83.87;97948.97;107466;1255;72666;-41
2023/12/14 11:34:55;;;;;;;5.90;2.70;;;;;;;2.19;83.74;97947.92;107493;1255;66795;-41
2023/12/14 11:37:22;;;;;;;4.90;2.80;;;;;;;2.26;83.93;97956.73;107463;1254;71406;-40
2023/12/14 11:39:50;;;;;;;4.90;3.30;;;;;;;2.31;84.34;97959.24;107462;1255;60447;-41
2023/12/14 11:42:18;;;;;;;4.40;3.10;;;;;;;2.38;84.29;97956.54;107465;1254;60437;-41